Time;durP1;ratioP1;P1;durP2;ratioP2;P2;SDS_P1;SDS_P2;PMS_P1;PMS_P2;Temp;Humidity;BMP_temperature;BMP_pressure;BME280_temperature;BME280_humidity;BME280_pressure;Samples;Min_cycle;Max_cycle;Signal;HPM_P1;HPM_P2
2022/08/29 00:00:22;;;;;;;7.80;2.25;;;25.40;79.70;;;;;;6276572;22;20004;-81
2022/08/29 00:02:50;;;;;;;5.22;2.22;;;25.50;79.50;;;;;;6276311;22;20069;-80
2022/08/29 00:05:22;;;;;;;2.85;2.25;;;25.40;79.00;;;;;;6248441;22;20406;-80
2022/08/29 00:07:48;;;;;;;4.53;1.88;;;25.30;78.60;;;;;;6276425;22;20003;-80
2022/08/29 00:10:14;;;;;;;2.72;1.67;;;25.30;78.50;;;;;;6276117;22;20011;-81
2022/08/29 00:12:40;;;;;;;2.67;1.55;;;25.30;78.30;;;;;;6276487;22;20484;-82
2022/08/29 00:15:08;;;;;;;2.97;1.90;;;25.30;77.70;;;;;;6276718;22;20019;-81
2022/08/29 00:17:34;;;;;;;3.05;1.67;;;25.20;77.10;;;;;;6249346;22;20418;-81
2022/08/29 00:20:00;;;;;;;4.65;1.73;;;25.30;77.20;;;;;;6275750;22;20015;-81
2022/08/29 00:22:26;;;;;;;4.97;1.80;;;25.30;77.00;;;;;;6276828;22;20011;-81
2022/08/29 00:24:51;;;;;;;3.97;1.60;;;25.20;76.00;;;;;;6276855;22;20314;-81
2022/08/29 00:27:17;;;;;;;2.88;1.50;;;25.20;76.40;;;;;;6275703;22;20010;-82
2022/08/29 00:29:43;;;;;;;2.40;1.42;;;25.10;76.40;;;;;;6276121;22;20000;-82
2022/08/29 00:32:09;;;;;;;2.53;1.70;;;25.10;76.60;;;;;;6276207;22;20000;-81
2022/08/29 00:34:34;;;;;;;2.03;1.42;;;25.00;76.70;;;;;;6275440;22;19996;-82
2022/08/29 00:37:00;;;;;;;4.60;1.92;;;25.00;76.80;;;;;;6249064;22;20004;-81
2022/08/29 00:39:26;;;;;;;2.47;1.50;;;25.00;76.80;;;;;;6276310;22;20003;-81
2022/08/29 00:41:51;;;;;;;2.20;1.50;;;25.00;76.80;;;;;;6276662;22;20416;-82
2022/08/29 00:44:17;;;;;;;3.20;1.80;;;24.90;76.90;;;;;;6276119;22;20004;-82
2022/08/29 00:46:49;;;;;;;2.08;1.63;;;24.90;77.10;;;;;;6276505;22;20004;-81
2022/08/29 00:49:33;;;;;;;5.10;2.08;;;24.90;77.10;;;;;;6276470;22;20004;-82
2022/08/29 00:52:05;;;;;;;3.60;1.83;;;25.00;77.30;;;;;;6276766;22;19996;-82
2022/08/29 00:54:31;;;;;;;4.28;2.15;;;24.90;77.30;;;;;;6278407;22;20000;-82
2022/08/29 00:56:57;;;;;;;1.83;1.42;;;24.90;77.50;;;;;;6278200;22;20021;-82
2022/08/29 00:59:30;;;;;;;1.90;1.55;;;24.90;77.60;;;;;;6278205;22;20000;-78
2022/08/29 01:01:56;;;;;;;4.22;1.85;;;24.90;77.70;;;;;;6251007;22;20000;-79
2022/08/29 01:04:21;;;;;;;2.58;1.73;;;24.90;77.90;;;;;;6250976;22;20068;-82
2022/08/29 01:06:47;;;;;;;5.18;2.10;;;24.90;78.40;;;;;;6278319;22;20026;-82
2022/08/29 01:09:13;;;;;;;3.20;1.95;;;24.80;79.40;;;;;;6278056;22;19996;-81
2022/08/29 01:14:26;;;;;;;8.57;2.20;;;24.70;79.80;;;;;;6278356;22;20130;-82
2022/08/29 01:16:56;;;;;;;2.75;2.33;;;24.70;80.00;;;;;;6278239;22;20022;-81
2022/08/29 01:19:36;;;;;;;5.85;2.78;;;24.70;81.10;;;;;;6277848;22;19996;-80
2022/08/29 01:22:12;;;;;;;2.72;2.40;;;24.70;81.00;;;;;;6278000;22;20062;-80
2022/08/29 01:24:49;;;;;;;9.07;2.72;;;24.70;81.00;;;;;;6250562;22;20373;-79
2022/08/29 01:27:21;;;;;;;3.67;2.60;;;24.70;81.80;;;;;;6278012;22;20003;-80
2022/08/29 01:29:47;;;;;;;3.58;2.70;;;24.80;81.90;;;;;;6278004;22;20391;-80
2022/08/29 01:32:13;;;;;;;3.78;2.85;;;24.80;82.20;;;;;;6277478;22;20006;-80
2022/08/29 01:34:39;;;;;;;3.92;2.50;;;24.80;81.50;;;;;;6277276;22;20418;-81
2022/08/29 01:37:07;;;;;;;2.35;2.15;;;24.80;81.70;;;;;;6277365;22;20000;-82
2022/08/29 01:39:37;;;;;;;9.27;2.72;;;24.90;81.50;;;;;;6250196;22;20333;-83
2022/08/29 01:42:10;;;;;;;4.05;2.45;;;25.00;81.50;;;;;;6250998;22;20008;-83
2022/08/29 01:44:37;;;;;;;3.88;3.05;;;25.10;81.50;;;;;;6277477;22;20057;-83
2022/08/29 01:47:04;;;;;;;4.03;3.00;;;25.20;81.90;;;;;;6277372;22;20074;-82
2022/08/29 01:49:33;;;;;;;3.90;2.88;;;25.20;81.60;;;;;;6277238;22;20090;-83
2022/08/29 01:51:59;;;;;;;5.40;3.38;;;25.20;81.70;;;;;;6277953;22;20000;-82
2022/08/29 01:54:25;;;;;;;5.13;3.40;;;25.30;81.80;;;;;;6277663;22;20002;-83
2022/08/29 01:56:53;;;;;;;7.25;3.25;;;25.30;81.80;;;;;;6250718;22;20001;-82
2022/08/29 01:59:25;;;;;;;5.45;3.30;;;25.40;81.90;;;;;;6277368;22;19996;-82
2022/08/29 02:01:55;;;;;;;5.25;3.38;;;25.50;82.00;;;;;;6277616;22;20446;-82
2022/08/29 02:04:21;;;;;;;;;;;25.50;82.10;;;;;;6277966;22;19999;-82
2022/08/29 02:06:48;;;;;;;6.13;3.22;;;25.50;82.30;;;;;;6277242;22;19903;-82
2022/08/29 02:09:13;;;;;;;5.70;4.03;;;25.60;82.30;;;;;;6250210;22;20349;-82
2022/08/29 02:11:39;;;;;;;6.00;3.53;;;25.50;82.50;;;;;;6277840;22;20071;-82
2022/08/29 02:14:06;;;;;;;4.50;3.40;;;25.50;82.90;;;;;;6277446;22;20105;-82
2022/08/29 02:16:32;;;;;;;3.85;2.78;;;25.40;83.00;;;;;;6277550;22;20090;-82
2022/08/29 02:18:58;;;;;;;3.92;3.08;;;25.40;82.80;;;;;;6277762;22;20057;-82
2022/08/29 02:21:27;;;;;;;12.43;3.05;;;25.40;82.90;;;;;;6277612;22;20039;-82
2022/08/29 02:23:57;;;;;;;3.85;2.90;;;25.40;83.00;;;;;;6277604;22;19999;-82
2022/08/29 02:26:23;;;;;;;5.57;3.70;;;25.50;83.00;;;;;;6277519;22;20000;-82
2022/08/29 02:28:50;;;;;;;4.38;3.90;;;25.50;83.30;;;;;;6277307;22;20029;-82
2022/08/29 02:31:17;;;;;;;6.68;3.55;;;25.50;83.20;;;;;;6249479;22;20003;-83
2022/08/29 02:33:43;;;;;;;6.38;4.28;;;25.50;83.20;;;;;;6276905;22;20067;-81
2022/08/29 02:36:09;;;;;;;4.70;3.25;;;25.60;83.40;;;;;;6277523;22;20023;-81
2022/08/29 02:38:34;;;;;;;6.18;4.18;;;25.60;84.00;;;;;;6276846;22;20053;-81
2022/08/29 02:41:01;;;;;;;7.70;4.20;;;25.60;84.10;;;;;;6276789;22;20053;-81
2022/08/29 02:43:27;;;;;;;5.25;3.95;;;25.60;84.10;;;;;;6277106;22;20015;-81
2022/08/29 02:45:53;;;;;;;5.82;4.13;;;25.50;84.00;;;;;;6277251;22;20018;-81
2022/08/29 02:48:20;;;;;;;5.22;3.92;;;25.60;84.70;;;;;;6277387;22;20079;-81
2022/08/29 02:50:52;;;;;;;6.25;3.80;;;25.60;84.20;;;;;;6276947;22;20000;-82
2022/08/29 02:53:20;;;;;;;5.72;4.50;;;25.60;84.20;;;;;;6277039;22;20024;-81
2022/08/29 02:55:47;;;;;;;5.70;4.28;;;25.60;84.40;;;;;;6277120;22;19999;-82
2022/08/29 02:58:13;;;;;;;5.40;4.05;;;25.60;84.70;;;;;;6276961;22;20472;-81
2022/08/29 03:00:40;;;;;;;4.57;3.28;;;25.40;84.90;;;;;;6276875;22;20010;-82
2022/08/29 03:03:06;;;;;;;4.95;3.80;;;25.40;84.50;;;;;;6277478;22;19999;-81
2022/08/29 03:05:36;;;;;;;6.53;4.45;;;25.40;84.60;;;;;;6277477;22;20310;-81
2022/08/29 03:08:05;;;;;;;5.18;4.22;;;25.50;84.80;;;;;;6277089;22;20004;-82
2022/08/29 03:10:31;;;;;;;5.00;3.60;;;25.50;84.70;;;;;;6276870;22;20437;-82
2022/08/29 03:12:58;;;;;;;5.18;3.95;;;25.50;84.60;;;;;;6277050;22;20003;-82
2022/08/29 03:15:25;;;;;;;8.15;3.90;;;25.50;84.60;;;;;;6276627;22;20326;-82
2022/08/29 03:17:51;;;;;;;4.25;3.55;;;25.60;84.70;;;;;;6277269;22;20000;-81
2022/08/29 03:20:19;;;;;;;5.40;3.95;;;25.60;84.60;;;;;;6276690;22;20019;-81
2022/08/29 03:22:46;;;;;;;5.88;4.30;;;25.60;84.60;;;;;;6277414;22;20023;-83
2022/08/29 03:25:13;;;;;;;5.35;4.05;;;25.70;84.80;;;;;;6277215;22;20455;-83
2022/08/29 03:27:39;;;;;;;5.97;4.70;;;25.70;84.70;;;;;;6249755;22;20008;-80
2022/08/29 03:30:11;;;;;;;6.43;4.20;;;25.60;85.00;;;;;;6276787;22;19999;-80
2022/08/29 03:32:38;;;;;;;7.65;4.72;;;25.60;84.80;;;;;;6276659;22;20023;-80
2022/08/29 03:35:05;;;;;;;7.38;4.97;;;25.60;85.30;;;;;;6276645;22;20000;-80
2022/08/29 03:37:31;;;;;;;7.85;5.57;;;25.50;85.30;;;;;;6276381;22;20003;-80
2022/08/29 03:39:57;;;;;;;5.95;4.85;;;25.50;86.40;;;;;;6276245;22;20339;-80
2022/08/29 03:42:23;;;;;;;9.18;6.10;;;25.30;86.20;;;;;;6276508;22;20394;-80
2022/08/29 03:44:49;;;;;;;6.30;4.50;;;25.30;86.40;;;;;;6277092;22;20023;-80
2022/08/29 03:47:15;;;;;;;6.50;5.38;;;25.30;85.90;;;;;;6276642;22;20031;-80
2022/08/29 03:49:41;;;;;;;6.30;4.78;;;25.40;86.30;;;;;;6249020;22;20098;-80
2022/08/29 03:52:08;;;;;;;6.35;5.07;;;25.40;86.30;;;;;;6276934;22;20003;-80
2022/08/29 03:54:34;;;;;;;7.93;4.60;;;25.40;86.10;;;;;;6277296;22;20010;-80
2022/08/29 03:57:00;;;;;;;5.63;4.60;;;25.50;86.00;;;;;;6276205;22;20002;-79
2022/08/29 03:59:26;;;;;;;7.13;4.75;;;25.50;86.00;;;;;;6276348;22;20000;-80
2022/08/29 04:01:51;;;;;;;8.93;4.88;;;25.60;86.10;;;;;;6276121;22;20003;-80
2022/08/29 04:07:05;;;;;;;5.88;4.93;;;25.60;85.90;;;;;;6275872;22;20098;-81
2022/08/29 04:09:31;;;;;;;4.47;4.00;;;25.60;86.00;;;;;;6275620;22;20003;-80
2022/08/29 04:11:57;;;;;;;5.65;4.40;;;25.60;85.70;;;;;;6276729;22;20000;-82
2022/08/29 04:14:24;;;;;;;6.60;4.85;;;25.70;85.70;;;;;;6276547;22;20003;-81
2022/08/29 04:16:50;;;;;;;5.90;4.07;;;25.70;85.80;;;;;;6276507;22;19996;-81
2022/08/29 04:19:20;;;;;;;10.07;5.25;;;25.70;85.60;;;;;;6276673;22;20007;-81
2022/08/29 04:21:47;;;;;;;7.45;5.90;;;25.70;85.80;;;;;;6276709;22;20035;-81
2022/08/29 04:24:18;;;;;;;6.15;5.50;;;25.60;86.10;;;;;;6276721;22;20006;-84
2022/08/29 04:26:44;;;;;;;9.13;5.47;;;25.50;86.60;;;;;;6250544;22;20023;-79
2022/08/29 04:29:11;;;;;;;8.00;5.65;;;25.50;86.40;;;;;;6278944;22;20008;-81
2022/08/29 04:31:38;;;;;;;6.38;4.90;;;25.50;86.40;;;;;;6278139;22;20000;-84
2022/08/29 04:34:05;;;;;;;5.00;4.50;;;25.40;86.60;;;;;;6278478;22;20000;-83
2022/08/29 04:36:33;;;;;;;9.75;5.28;;;25.40;86.70;;;;;;6278476;22;20464;-83
2022/08/29 04:38:59;;;;;;;7.45;6.18;;;25.40;87.10;;;;;;6251458;22;20004;-82
2022/08/29 04:41:25;;;;;;;7.72;6.30;;;25.30;87.80;;;;;;6278033;22;19999;-78
2022/08/29 04:43:51;;;;;;;9.68;6.07;;;25.30;88.10;;;;;;6278257;22;20380;-78
2022/08/29 04:46:17;;;;;;;7.63;5.63;;;25.20;88.50;;;;;;6278225;22;20011;-78
2022/08/29 04:48:42;;;;;;;6.90;5.60;;;25.20;88.30;;;;;;6278235;22;20000;-78
2022/08/29 04:51:09;;;;;;;7.00;4.70;;;25.10;88.30;;;;;;6277757;22;20027;-78
2022/08/29 04:53:36;;;;;;;6.72;5.07;;;25.20;88.30;;;;;;6278362;22;19996;-78
2022/08/29 04:56:08;;;;;;;8.65;5.28;;;25.20;88.40;;;;;;6277941;22;20007;-78
2022/08/29 04:58:36;;;;;;;8.80;7.20;;;25.30;88.40;;;;;;6278033;22;20006;-78
2022/08/29 05:01:02;;;;;;;9.00;6.07;;;25.30;88.70;;;;;;6277883;22;19999;-78
2022/08/29 05:03:28;;;;;;;6.75;5.15;;;25.20;88.90;;;;;;6278507;22;20373;-78
2022/08/29 05:06:02;;;;;;;10.00;7.43;;;25.20;88.80;;;;;;6278627;22;19999;-78
2022/08/29 05:08:30;;;;;;;8.60;6.50;;;25.20;89.70;;;;;;6277708;22;19999;-79
2022/08/29 05:10:56;;;;;;;10.25;6.95;;;25.10;89.50;;;;;;6277152;22;20000;-79
2022/08/29 05:13:22;;;;;;;6.82;5.82;;;25.10;89.80;;;;;;6277797;22;20000;-78
2022/08/29 05:15:48;;;;;;;9.98;6.97;;;25.10;89.70;;;;;;6277462;22;20414;-78
2022/08/29 05:18:16;;;;;;;5.78;4.45;;;25.10;90.00;;;;;;6277422;22;20015;-74
2022/08/29 05:20:44;;;;;;;12.60;7.75;;;25.10;89.60;;;;;;6277468;22;20039;-73
2022/08/29 05:23:10;;;;;;;9.48;6.78;;;25.10;90.10;;;;;;6277402;22;20027;-74
2022/08/29 05:25:36;;;;;;;9.70;6.75;;;25.10;90.20;;;;;;6277496;22;20006;-74
2022/08/29 05:28:02;;;;;;;8.10;5.93;;;25.10;90.20;;;;;;6277115;22;20003;-75
2022/08/29 05:30:30;;;;;;;6.75;5.95;;;25.10;89.50;;;;;;6277564;22;20010;-74
2022/08/29 05:32:56;;;;;;;9.70;6.80;;;25.30;89.40;;;;;;6277369;22;20000;-74
2022/08/29 05:35:22;;;;;;;7.28;6.07;;;25.30;89.80;;;;;;6277550;22;20007;-81
2022/08/29 05:37:48;;;;;;;7.50;6.30;;;25.40;89.40;;;;;;6276453;22;20058;-81
2022/08/29 05:40:14;;;;;;;6.97;5.32;;;25.40;89.50;;;;;;6277033;22;20011;-81
2022/08/29 05:42:40;;;;;;;9.75;5.32;;;25.40;88.90;;;;;;6277283;22;20000;-81
2022/08/29 05:45:07;;;;;;;6.68;5.20;;;25.40;88.90;;;;;;6277208;22;20004;-82
2022/08/29 05:47:32;;;;;;;9.57;6.35;;;25.50;88.80;;;;;;6276863;22;20049;-81
2022/08/29 05:49:59;;;;;;;7.85;5.72;;;25.60;88.90;;;;;;6277401;22;20022;-81
2022/08/29 05:52:25;;;;;;;8.07;5.53;;;25.60;88.30;;;;;;6277206;22;20046;-81
2022/08/29 05:54:51;;;;;;;6.57;5.57;;;25.70;88.10;;;;;;6277596;22;19996;-81
2022/08/29 05:57:20;;;;;;;6.65;4.82;;;25.80;87.90;;;;;;6277622;22;20505;-81
2022/08/29 05:59:50;;;;;;;5.70;4.85;;;25.80;87.60;;;;;;6277888;22;20030;-81
2022/08/29 06:02:16;;;;;;;6.72;5.40;;;25.90;87.40;;;;;;6277508;22;20306;-82
2022/08/29 06:04:42;;;;;;;8.38;5.05;;;25.90;87.20;;;;;;6277780;22;20000;-82
2022/08/29 06:07:09;;;;;;;8.10;5.07;;;26.00;87.10;;;;;;6278140;22;20010;-81
2022/08/29 06:09:36;;;;;;;6.43;5.15;;;26.00;86.70;;;;;;6277983;22;20053;-82
2022/08/29 06:12:02;;;;;;;8.70;5.72;;;26.10;86.50;;;;;;6251172;22;20075;-82
2022/08/29 06:14:28;;;;;;;6.32;5.13;;;26.10;86.30;;;;;;6277311;22;20284;-82
2022/08/29 06:16:54;;;;;;;5.60;5.03;;;26.20;86.20;;;;;;6276981;22;20024;-81
2022/08/29 06:19:20;;;;;;;5.28;4.68;;;26.20;86.20;;;;;;6277093;22;20003;-80
2022/08/29 06:21:46;;;;;;;6.90;5.72;;;26.20;86.10;;;;;;6277795;22;19996;-82
2022/08/29 06:24:13;;;;;;;8.80;4.93;;;26.20;85.90;;;;;;6277791;22;20075;-82
2022/08/29 06:26:38;;;;;;;5.63;5.03;;;26.20;85.90;;;;;;6277835;22;20045;-82
2022/08/29 06:29:06;;;;;;;6.95;4.88;;;26.30;85.70;;;;;;6277716;22;20000;-82
2022/08/29 06:31:33;;;;;;;5.57;4.50;;;26.30;85.40;;;;;;6277574;22;20000;-81
2022/08/29 06:34:01;;;;;;;7.47;4.82;;;26.30;85.10;;;;;;6277544;22;20283;-82
2022/08/29 06:36:28;;;;;;;7.88;5.95;;;26.30;84.90;;;;;;6277745;22;19999;-82
2022/08/29 06:38:55;;;;;;;6.82;4.72;;;26.30;84.50;;;;;;6277776;22;20006;-81
2022/08/29 06:41:21;;;;;;;5.30;4.15;;;26.40;84.60;;;;;;6277500;22;20034;-82
2022/08/29 06:43:47;;;;;;;5.15;4.53;;;26.40;84.50;;;;;;6277253;22;20003;-82
2022/08/29 06:46:28;;;;;;;8.48;5.35;;;26.40;84.30;;;;;;6276947;22;20004;-82
2022/08/29 06:48:56;;;;;;;7.63;4.95;;;26.40;84.20;;;;;;6277413;22;20485;-82
2022/08/29 06:51:22;;;;;;;6.88;4.50;;;26.50;84.10;;;;;;6276611;22;20004;-81
2022/08/29 06:53:48;;;;;;;6.22;4.95;;;26.50;84.00;;;;;;6277164;22;20003;-82
2022/08/29 06:56:14;;;;;;;6.53;4.85;;;26.60;83.80;;;;;;6277091;22;20402;-82
2022/08/29 06:58:41;;;;;;;5.90;4.68;;;26.60;83.60;;;;;;6250155;22;19999;-82
2022/08/29 07:01:12;;;;;;;5.07;4.22;;;26.70;83.50;;;;;;6277261;22;20014;-81
2022/08/29 07:03:40;;;;;;;7.20;4.30;;;26.70;83.20;;;;;;6276995;22;20359;-82
2022/08/29 07:06:06;;;;;;;6.03;5.40;;;26.80;83.10;;;;;;6276980;22;20004;-81
2022/08/29 07:08:33;;;;;;;5.15;4.35;;;26.80;82.70;;;;;;6276979;22;20004;-82
2022/08/29 07:11:00;;;;;;;5.88;4.75;;;26.80;82.60;;;;;;6277102;22;20058;-82
2022/08/29 07:13:25;;;;;;;7.00;4.60;;;26.80;82.60;;;;;;6277150;22;20071;-81
2022/08/29 07:15:51;;;;;;;4.50;4.10;;;26.90;82.50;;;;;;6276729;22;20081;-82
2022/08/29 07:18:17;;;;;;;9.60;4.40;;;26.90;82.40;;;;;;6277144;22;20041;-82
2022/08/29 07:20:43;;;;;;;5.57;4.28;;;27.00;82.30;;;;;;6276549;22;20016;-81
2022/08/29 07:23:09;;;;;;;6.03;4.75;;;27.00;82.00;;;;;;6277176;22;20079;-82
2022/08/29 07:25:36;;;;;;;8.30;5.28;;;27.00;81.90;;;;;;6276933;22;20000;-81
2022/08/29 07:28:02;;;;;;;4.53;3.88;;;27.10;81.70;;;;;;6276981;22;20334;-82
2022/08/29 07:30:28;;;;;;;7.85;4.30;;;27.10;81.70;;;;;;6276950;22;20050;-82
2022/08/29 07:32:54;;;;;;;5.40;4.80;;;27.30;81.40;;;;;;6276896;22;20418;-81
2022/08/29 07:35:21;;;;;;;4.85;4.30;;;27.30;80.70;;;;;;6277163;22;20382;-81
2022/08/29 07:37:46;;;;;;;8.02;4.60;;;27.30;80.70;;;;;;6276881;22;20020;-82
2022/08/29 07:40:16;;;;;;;6.40;4.65;;;27.30;80.40;;;;;;6276843;22;20315;-82
2022/08/29 07:42:42;;;;;;;8.05;5.50;;;27.30;80.20;;;;;;6277053;22;20007;-82
2022/08/29 07:45:10;;;;;;;7.43;4.22;;;27.30;79.50;;;;;;6276770;22;20006;-82
2022/08/29 07:47:36;;;;;;;9.60;4.55;;;27.40;80.20;;;;;;6277009;22;20003;-81
2022/08/29 07:50:05;;;;;;;6.22;4.05;;;27.40;80.10;;;;;;6276795;22;20066;-82
2022/08/29 07:52:31;;;;;;;4.75;3.67;;;27.50;80.10;;;;;;6276829;22;20502;-82
2022/08/29 07:54:57;;;;;;;5.63;4.10;;;27.60;80.00;;;;;;6249761;22;20004;-82
2022/08/29 07:57:23;;;;;;;7.65;3.83;;;27.70;79.80;;;;;;6276746;22;19996;-82
2022/08/29 07:59:49;;;;;;;6.22;4.05;;;27.80;79.60;;;;;;6276365;22;20003;-82
2022/08/29 08:02:15;;;;;;;5.70;4.13;;;27.90;79.40;;;;;;6275955;22;20027;-81
2022/08/29 08:04:41;;;;;;;4.80;3.80;;;28.10;79.10;;;;;;6276671;22;20003;-82
2022/08/29 08:07:07;;;;;;;4.22;3.67;;;28.20;78.90;;;;;;6277281;22;20004;-82
2022/08/29 08:12:15;;;;;;;3.95;3.47;;;28.30;77.80;;;;;;6306998;22;20023;-88
2022/08/29 08:14:41;;;;;;;4.88;3.50;;;28.30;77.40;;;;;;6307090;22;20324;-88
2022/08/29 08:17:06;;;;;;;6.90;3.97;;;28.30;77.30;;;;;;6306902;22;20008;-88
2022/08/29 08:19:32;;;;;;;5.22;3.83;;;28.30;77.20;;;;;;6279821;22;20081;-87
2022/08/29 08:21:59;;;;;;;5.60;3.92;;;28.40;77.20;;;;;;6280329;22;20038;-88
2022/08/29 08:24:25;;;;;;;8.13;4.25;;;28.40;77.10;;;;;;6306988;22;20405;-88
2022/08/29 08:26:50;;;;;;;5.35;4.10;;;28.50;76.90;;;;;;6307179;22;20000;-88
2022/08/29 08:29:16;;;;;;;4.47;4.05;;;28.60;76.40;;;;;;6307168;22;20074;-88
2022/08/29 08:31:44;;;;;;;4.90;3.97;;;28.60;76.60;;;;;;6306865;22;20433;-88
2022/08/29 08:34:14;;;;;;;10.82;4.80;;;28.70;76.20;;;;;;6306869;22;20022;-89
2022/08/29 08:36:41;;;;;;;;;;;28.80;75.00;;;;;;6307282;22;20049;-88
2022/08/29 08:39:08;;;;;;;5.32;3.30;;;28.80;74.10;;;;;;6307239;22;19905;-88
2022/08/29 08:41:59;;;;;;;3.63;3.25;;;28.80;75.40;;;;;;6307108;22;19999;-87
2022/08/29 08:44:52;;;;;;;5.35;3.30;;;29.00;75.30;;;;;;6307026;22;20007;-89
2022/08/29 08:47:29;;;;;;;4.50;3.25;;;29.10;73.50;;;;;;6306949;22;20093;-89
2022/08/29 08:50:06;;;;;;;3.92;3.00;;;29.30;74.20;;;;;;6307044;22;20074;-88
2022/08/29 08:52:41;;;;;;;5.68;2.90;;;29.40;74.10;;;;;;6307092;22;20027;-88
2022/08/29 08:55:27;;;;;;;4.70;3.30;;;29.60;73.50;;;;;;6306864;22;20003;-89
2022/08/29 08:58:11;;;;;;;5.97;3.97;;;29.70;73.30;;;;;;6307199;22;20346;-89
2022/08/29 09:00:43;;;;;;;4.70;3.38;;;29.80;70.20;;;;;;6306779;22;19999;-89
2022/08/29 09:03:45;;;;;;;8.05;4.30;;;29.70;71.80;;;;;;6307187;22;20006;-88
2022/08/29 09:06:30;;;;;;;6.75;3.50;;;29.70;70.70;;;;;;6307032;22;20026;-89
2022/08/29 09:08:56;;;;;;;3.63;3.30;;;29.70;71.90;;;;;;6306404;22;20029;-88
2022/08/29 09:11:53;;;;;;;4.35;3.63;;;29.80;72.00;;;;;;6305977;22;20012;-88
2022/08/29 09:14:32;;;;;;;4.15;2.70;;;29.90;72.20;;;;;;6309179;22;19996;-88
2022/08/29 09:16:59;;;;;;;5.07;3.78;;;30.00;71.70;;;;;;6308944;22;20055;-88
2022/08/29 09:19:25;;;;;;;7.43;4.43;;;30.00;71.50;;;;;;6309248;22;20132;-88
2022/08/29 09:21:55;;;;;;;5.32;3.53;;;30.30;71.00;;;;;;6308909;22;20068;-88
2022/08/29 09:24:31;;;;;;;5.18;3.72;;;30.50;71.20;;;;;;6309156;22;20066;-87
2022/08/29 09:26:57;;;;;;;3.47;3.15;;;30.50;69.70;;;;;;6309406;22;20003;-89
2022/08/29 09:29:28;;;;;;;2.90;2.60;;;30.60;70.10;;;;;;6309455;22;20006;-88
2022/08/29 09:32:13;;;;;;;6.03;4.05;;;30.60;70.10;;;;;;6309097;22;20022;-89
2022/08/29 09:34:43;;;;;;;5.60;4.53;;;30.50;68.80;;;;;;6281422;22;20333;-89
2022/08/29 09:37:22;;;;;;;6.28;3.75;;;30.50;69.10;;;;;;6281806;22;19999;-89
2022/08/29 09:39:53;;;;;;;8.30;4.63;;;30.40;69.70;;;;;;6281730;22;20095;-89
2022/08/29 09:42:21;;;;;;;6.18;4.13;;;30.30;69.80;;;;;;6281902;22;20333;-89
2022/08/29 09:44:57;;;;;;;6.07;3.90;;;30.20;70.20;;;;;;6308651;22;20074;-89
2022/08/29 09:47:26;;;;;;;4.25;3.60;;;30.10;70.40;;;;;;6308937;22;20007;-89
2022/08/29 09:50:16;;;;;;;6.50;4.93;;;28.40;69.80;;;;;;6281594;22;20433;-89
2022/08/29 09:53:02;;;;;;;4.18;3.70;;;29.80;70.90;;;;;;6278902;22;20006;-88
2022/08/29 09:55:38;;;;;;;4.85;3.72;;;29.70;71.50;;;;;;6308405;22;20022;-88
2022/08/29 09:58:19;;;;;;;4.88;4.30;;;29.80;71.70;;;;;;6308873;22;19995;-89
2022/08/29 10:01:01;;;;;;;4.38;3.97;;;29.70;70.60;;;;;;6308289;22;20023;-88
2022/08/29 10:03:32;;;;;;;4.28;3.88;;;29.70;71.20;;;;;;6308701;22;20003;-92
2022/08/29 10:06:13;;;;;;;5.38;3.72;;;29.60;71.80;;;;;;6281349;22;20496;-91
2022/08/29 10:08:40;;;;;;;3.78;2.92;;;29.60;71.60;;;;;;6309458;22;20083;-92
2022/08/29 10:11:21;;;;;;;5.40;3.42;;;29.70;71.80;;;;;;6280860;22;20082;-92
2022/08/29 10:13:54;;;;;;;6.07;3.90;;;29.70;71.30;;;;;;6309198;22;20014;-92
2022/08/29 10:16:26;;;;;;;5.28;3.72;;;29.70;71.50;;;;;;6308920;22;20117;-88
2022/08/29 10:19:00;;;;;;;3.70;3.25;;;29.70;71.20;;;;;;6308618;22;20431;-88
2022/08/29 10:21:26;;;;;;;4.60;3.45;;;29.70;71.40;;;;;;6308558;22;20051;-92
2022/08/29 10:24:13;;;;;;;7.88;4.07;;;29.80;71.30;;;;;;6308680;22;20000;-92
2022/08/29 10:26:57;;;;;;;5.43;3.72;;;29.80;70.90;;;;;;6309230;22;20478;-92
2022/08/29 10:29:38;;;;;;;5.82;3.40;;;29.90;70.90;;;;;;6281705;22;20014;-81
2022/08/29 10:32:20;;;;;;;5.65;4.20;;;30.00;70.90;;;;;;6308618;22;20003;-90
2022/08/29 10:35:39;;;;;;;4.78;3.90;;;30.00;70.70;;;;;;6309399;22;20000;-89
2022/08/29 10:38:17;;;;;;;7.07;3.60;;;30.30;70.70;;;;;;6184427;23;20001;-89
2022/08/29 10:40:54;;;;;;;5.00;3.65;;;30.40;69.70;;;;;;6307594;22;20010;-91
2022/08/29 10:43:49;;;;;;;4.28;3.40;;;30.40;70.10;;;;;;6308079;22;20060;-91
2022/08/29 10:46:40;;;;;;;4.85;3.13;;;30.60;70.30;;;;;;6308861;22;20125;-88
2022/08/29 10:49:27;;;;;;;4.70;3.33;;;30.80;69.80;;;;;;6308497;22;20003;-93
2022/08/29 10:52:10;;;;;;;4.15;3.28;;;31.30;69.90;;;;;;6309815;22;20007;-96
2022/08/29 10:55:31;;;;;;;4.82;3.50;;;31.30;69.60;;;;;;6282074;22;20031;-96
2022/08/29 10:58:25;;;;;;;5.82;3.63;;;31.40;69.10;;;;;;6185646;23;20001;-94
2022/08/29 11:01:29;;;;;;;4.75;3.28;;;31.60;68.60;;;;;;6309736;22;20070;-96
2022/08/29 11:04:16;;;;;;;3.75;3.38;;;31.80;68.00;;;;;;6277698;22;20444;-94
2022/08/29 11:06:53;;;;;;;8.27;3.65;;;32.00;67.70;;;;;;6281899;22;20003;-94
2022/08/29 11:09:28;;;;;;;4.28;2.95;;;32.30;67.20;;;;;;6309014;22;19999;-95
2022/08/29 11:12:15;;;;;;;5.38;3.38;;;32.40;66.40;;;;;;6309131;22;20025;-95
2022/08/29 11:22:04;;;;;;;5.75;3.25;;;33.20;64.50;;;;;;6309018;22;20006;-94
2022/08/29 11:24:38;;;;;;;4.57;3.13;;;33.40;63.80;;;;;;6308730;22;20444;-95
2022/08/29 11:27:14;;;;;;;4.70;3.15;;;33.70;63.80;;;;;;6309350;22;20023;-94
2022/08/29 11:29:56;;;;;;;4.55;2.97;;;33.80;62.80;;;;;;6308941;22;20003;-95
2022/08/29 11:32:49;;;;;;;5.95;3.05;;;34.00;61.90;;;;;;6280964;22;19995;-92
2022/08/29 11:35:47;;;;;;;10.45;3.30;;;34.20;61.50;;;;;;6307792;22;19999;-93
2022/08/29 11:38:19;;;;;;;4.00;3.17;;;34.40;59.10;;;;;;6262345;22;20003;-91
2022/08/29 11:46:13;;;;;;;7.97;3.30;;;34.90;60.10;;;;;;6386580;22;20022;-96
2022/08/29 11:48:45;;;;;;;4.18;3.15;;;35.00;58.60;;;;;;6335120;22;20010;-96
2022/08/29 11:51:36;;;;;;;4.45;3.00;;;34.70;58.30;;;;;;6377609;22;20006;-95
2022/08/29 11:54:23;;;;;;;4.47;2.90;;;35.20;58.40;;;;;;6374793;22;19998;-92
2022/08/29 11:57:10;;;;;;;8.57;3.13;;;35.30;57.70;;;;;;6381892;22;19994;-96
2022/08/29 11:59:53;;;;;;;7.05;2.90;;;35.50;58.40;;;;;;6357256;22;20046;-96
2022/08/29 12:02:30;;;;;;;6.88;3.33;;;35.60;57.10;;;;;;6347315;22;20002;-95
2022/08/29 12:05:07;;;;;;;7.50;3.72;;;35.80;57.20;;;;;;6343043;22;20124;-93
2022/08/29 12:07:33;;;;;;;10.23;3.33;;;35.90;55.70;;;;;;6371468;22;19994;-95
2022/08/29 12:10:01;;;;;;;5.45;3.13;;;35.90;56.70;;;;;;6373073;22;20312;-96
2022/08/29 12:12:36;;;;;;;4.95;3.20;;;35.80;55.50;;;;;;6344432;22;20010;-96
2022/08/29 12:15:31;;;;;;;4.03;2.83;;;35.90;55.30;;;;;;6374612;22;19999;-96
2022/08/29 12:18:01;;;;;;;4.82;2.83;;;36.00;55.90;;;;;;6371978;22;20025;-96
2022/08/29 12:20:30;;;;;;;4.45;2.85;;;36.00;54.30;;;;;;6344323;22;20305;-95
2022/08/29 12:23:03;;;;;;;4.38;2.92;;;36.10;55.00;;;;;;6372409;22;19998;-95
2022/08/29 12:25:45;;;;;;;6.30;3.00;;;36.30;55.20;;;;;;6345363;22;20002;-96
2022/08/29 12:28:17;;;;;;;3.20;2.13;;;36.30;54.60;;;;;;6342925;22;20003;-88
2022/08/29 12:31:09;;;;;;;3.53;2.65;;;36.40;53.80;;;;;;6369608;22;19999;-88
2022/08/29 12:34:01;;;;;;;3.20;2.83;;;36.50;53.00;;;;;;6353485;22;19999;-88
2022/08/29 12:36:43;;;;;;;2.67;2.45;;;36.50;54.10;;;;;;6367726;22;20117;-88
2022/08/29 12:39:34;;;;;;;3.70;2.83;;;36.40;54.10;;;;;;6367785;22;19999;-88
2022/08/29 12:42:30;;;;;;;5.65;3.33;;;36.20;54.10;;;;;;6368863;22;20003;-89
2022/08/29 12:45:23;;;;;;;3.40;2.75;;;35.80;54.60;;;;;;6341497;22;20459;-88
2022/08/29 12:48:14;;;;;;;3.92;2.95;;;35.40;55.50;;;;;;6341835;22;20020;-88
2022/08/29 12:50:44;;;;;;;3.58;3.03;;;35.10;56.20;;;;;;6342644;22;20021;-88
2022/08/29 12:53:24;;;;;;;5.25;2.97;;;35.10;56.90;;;;;;6343391;22;20305;-88
2022/08/29 12:55:56;;;;;;;5.68;2.40;;;35.10;57.20;;;;;;6371309;22;20424;-89
2022/08/29 12:58:36;;;;;;;4.32;3.00;;;35.10;57.60;;;;;;6341534;22;20444;-89
2022/08/29 13:01:05;;;;;;;3.53;2.80;;;35.30;57.10;;;;;;6370358;22;19998;-88
2022/08/29 13:03:32;;;;;;;4.70;2.90;;;35.50;57.20;;;;;;6370352;22;20010;-89
2022/08/29 13:06:09;;;;;;;4.45;3.08;;;35.60;56.80;;;;;;6341960;22;20021;-88
2022/08/29 13:08:39;;;;;;;3.45;3.03;;;35.80;56.70;;;;;;6342323;22;20003;-87
2022/08/29 13:11:09;;;;;;;4.60;2.92;;;35.80;56.40;;;;;;6341573;22;20006;-82
2022/08/29 13:13:35;;;;;;;5.03;3.35;;;35.90;56.20;;;;;;6368334;22;20002;-79
2022/08/29 13:16:05;;;;;;;6.15;3.17;;;35.80;56.20;;;;;;6368980;22;19998;-82
2022/08/29 13:18:31;;;;;;;5.28;3.20;;;35.80;56.80;;;;;;6344412;22;19999;-82
2022/08/29 13:21:31;;;;;;;3.25;2.47;;;35.60;56.10;;;;;;6372571;22;20002;-91
2022/08/29 13:24:10;;;;;;;6.65;3.20;;;35.50;55.60;;;;;;6316382;22;20471;-91
2022/08/29 13:26:48;;;;;;;3.92;2.67;;;35.30;56.00;;;;;;6372473;22;20074;-90
2022/08/29 13:29:40;;;;;;;6.35;3.03;;;35.10;56.50;;;;;;6373338;22;20013;-95